METAR Data
IDs: Format: Raw Decoded Include TAF

Data at: 0715 UTC 23 Feb 2019

PAGK 230653Z AUTO 00000KT 10SM CLR M23/M25 A3039 RMK AO2 SLP352 T12281250 TSNO $
PAGK 230553Z AUTO 33003KT 10SM CLR M16/M21 A3037 RMK AO2 SLP341 T11561211 11056 21156 51020 TSNO $
PAGK 230453Z AUTO 32005KT 10SM CLR M14/M19 A3036 RMK AO2 SLP335 T11391194 TSNO $
PAGK 230353Z AUTO 30004KT 10SM CLR M11/M19 A3033 RMK AO2 SLP323 T11111189 TSNO $
PAGK 230253Z AUTO 31003KT 10SM CLR M09/M19 A3031 RMK AO2 SLP314 T10941194 53012 TSNO $
PAGK 230153Z AUTO 31005KT 10SM CLR M06/M19 A3029 RMK SLP305 T10561194 TSNO $ VIA AUTODIAL
PAGK 230053Z AUTO 32005KT 10SM CLR M06/M19 A3028 RMK AO2 SLP300 T10561189 TSNO $
PAGK 222353Z AUTO 31009KT 10SM CLR M06/M19 A3027 RMK AO2 SLP296 T10561194 11056 21133 53012 TSNO $
PAGK 222253Z AUTO 32010KT 10SM CLR M06/M19 A3026 RMK AO2 SLP294 T10611194 TSNO $
PAGK 222153Z AUTO 32010G16KT 10SM CLR M07/M19 A3024 RMK AO2 SLP288 T10721194 TSNO
PAGK 222053Z AUTO 33014KT 10SM CLR M07/M20 A3023 RMK AO2 SLP285 T10721200 51025 TSNO
PAGK 221953Z AUTO 35013G20KT 10SM CLR M09/M20 A3021 RMK AO2 SLP279 T10941200 TSNO
PAGK 221853Z AUTO 35011G19KT 10SM CLR M11/M21 A3018 RMK SLP272 T11111206 TSNO VIA AUTODIAL
PAGK 221753Z AUTO 30008KT 10SM CLR M13/M21 A3016 RMK AO2 SLP262 T11281211 11122 21133 53018 TSNO
PAGK 221653Z AUTO 32011G18KT 10SM CLR M13/M21 A3012 RMK AO2 SLP251 T11331206 TSNO
PAGK 221553Z AUTO 34012G19KT 10SM CLR M13/M21 A3010 RMK AO2 SLP242 T11281206 TSNO
PAGK 221453Z AUTO 33012G19KT 10SM CLR M13/M20 A3010 RMK AO2 SLP240 T11281200 53015 TSNO
PAGK 221353Z AUTO 33012KT 10SM CLR M13/M20 A3008 RMK AO2 SLP232 T11331200 TSNO
PAGK 221253Z AUTO 33014G21KT 10SM CLR M13/M20 A3006 RMK AO2 SLP221 T11281200 TSNO
PAGK 221153Z AUTO 32012G19KT 10SM CLR M13/M19 A3005 RMK AO2 SLP220 70013 T11281194 11100 21128 53021 TSNO
PAGK 221053Z AUTO 33010KT 10SM CLR M13/M19 A3003 RMK AO2 SLP213 T11281194 TSNO
PAGK 220953Z AUTO 34012KT 10SM CLR M12/M19 A3000 RMK AO2 SLP205 T11221189 TSNO
PAGK 220853Z AUTO 34010KT 10SM CLR M12/M19 A2999 RMK AO2 SLP200 T11221189 410331122 51033 TSNO
PAGK 220753Z AUTO 33011KT 10SM CLR M12/M18 A2996 RMK AO2 SLP191 T11171178 TSNO
PAGK 220653Z AUTO 33011KT 10SM CLR M11/M17 A2993 RMK SLP181 T11111172 TSNO VIA AUTODIAL
PAGK 220553Z AUTO 33009KT 10SM CLR M10/M17 A2989 RMK AO2 SLP166 T11001167 11033 21100 51029 TSNO
PAGK 220453Z AUTO 33009KT 10SM CLR M09/M16 A2986 RMK AO2 SLP159 T10941156 TSNO
PAGK 220353Z AUTO 33010KT 10SM CLR M08/M14 A2983 RMK AO2 SLP147 T10831144 TSNO
PAGK 220253Z AUTO 32007KT 10SM CLR M08/M13 A2980 RMK AO2 SLP134 T10781133 53018 TSNO
PAGK 220153Z AUTO 32007KT 10SM CLR M05/M12 A2977 RMK AO2 SLP122 T10501117 TSNO
PAGK 220053Z AUTO 33008KT 10SM FEW090 M03/M11 A2975 RMK AO2 SLP115 T10331106 TSNO
PAGK 212353Z AUTO 34007KT 10SM CLR M03/M10 A2974 RMK AO2 SLP112 60001 T10331100 11033 21106 53013 TSNO
PAGK 212253Z AUTO 34007KT 10SM CLR M04/M10 A2973 RMK AO2 SLP109 T10441100 TSNO
PAGK 212153Z AUTO 33009KT 10SM CLR M06/M11 A2970 RMK AO2 SLP102 T10561106 TSNO
PAGK 212053Z AUTO 32007KT 10SM CLR M07/M11 A2970 RMK AO2 SLP102 60001 T10721111 53011 TSNO
PAGK 211953Z AUTO 30006KT 10SM BKN070 M09/M12 A2969 RMK AO2 SNE1856 SLP098 P0000 T10891117 TSNO